createdAt,value
2023-04-05T00:01:12.479Z,22.60
2023-04-05T00:03:42.758Z,20.70
2023-04-05T00:06:13.438Z,21.70
2023-04-05T00:08:41.874Z,15.97
2023-04-05T00:11:10.068Z,15.83
2023-04-05T00:13:38.454Z,16.10
2023-04-05T00:16:07.875Z,18.70
2023-04-05T00:18:38.381Z,17.53
2023-04-05T00:21:08.057Z,21.20
2023-04-05T00:23:38.648Z,18.97
2023-04-05T00:26:07.090Z,19.17
2023-04-05T00:28:36.128Z,20.53
2023-04-05T00:31:04.639Z,17.07
2023-04-05T00:33:32.755Z,20.80
2023-04-05T00:36:11.735Z,21.37
2023-04-05T00:38:40.237Z,18.57
2023-04-05T00:41:08.368Z,18.70
2023-04-05T00:43:36.962Z,16.67
2023-04-05T00:46:06.236Z,13.73
2023-04-05T00:48:34.572Z,14.00
2023-04-05T00:51:03.013Z,15.33
2023-04-05T00:53:33.092Z,23.47
2023-04-05T00:56:02.144Z,18.00
2023-04-05T00:58:30.237Z,17.90
2023-04-05T01:01:05.459Z,13.87
2023-04-05T01:03:35.767Z,15.27
2023-04-05T01:06:16.212Z,17.77
2023-04-05T01:08:56.313Z,16.37
2023-04-05T01:11:26.509Z,17.07
2023-04-05T01:13:59.809Z,17.20
2023-04-05T01:16:28.373Z,15.70
2023-04-05T01:18:57.671Z,16.10
2023-04-05T01:21:50.153Z,16.77
2023-04-05T01:24:38.747Z,11.40
2023-04-05T01:27:11.527Z,20.13
2023-04-05T01:30:06.347Z,14.50
2023-04-05T01:32:51.053Z,16.20
2023-04-05T01:35:26.232Z,15.60
2023-04-05T01:38:01.112Z,18.53
2023-04-05T01:40:29.502Z,18.23
2023-04-05T01:42:57.744Z,17.50
2023-04-05T01:45:27.329Z,17.13
2023-04-05T01:47:55.368Z,18.40
2023-04-05T01:50:23.437Z,18.17
2023-04-05T01:52:51.401Z,17.13
2023-04-05T01:55:19.403Z,17.53
2023-04-05T01:57:47.377Z,18.57
2023-04-05T02:00:15.714Z,22.33
2023-04-05T02:02:45.339Z,32.73
2023-04-05T02:05:13.390Z,28.90
2023-04-05T02:07:41.514Z,21.33
2023-04-05T02:10:10.458Z,19.13
2023-04-05T02:12:38.653Z,18.70
2023-04-05T02:15:08.054Z,16.00
2023-04-05T02:17:39.503Z,16.77
2023-04-05T02:20:12.450Z,13.63
2023-04-05T02:22:41.177Z,15.20
2023-04-05T02:25:10.100Z,16.20
2023-04-05T02:27:38.230Z,15.20
2023-04-05T02:30:07.740Z,18.67
2023-04-05T02:32:36.172Z,19.67
2023-04-05T02:35:04.432Z,16.10
2023-04-05T02:37:33.807Z,12.93
2023-04-05T02:40:01.836Z,17.47
2023-04-05T02:42:29.836Z,10.87
2023-04-05T02:44:57.860Z,13.87
2023-04-05T02:47:25.919Z,11.00
2023-04-05T02:49:53.889Z,12.13
2023-04-05T02:52:22.284Z,12.10
2023-04-05T02:54:51.817Z,13.23
2023-04-05T02:57:19.853Z,16.83
2023-04-05T02:59:47.877Z,11.53
2023-04-05T03:02:16.271Z,12.70
2023-04-05T03:04:44.969Z,12.73
2023-04-05T03:07:18.692Z,16.47
2023-04-05T03:09:47.569Z,13.57
2023-04-05T03:12:17.084Z,12.93
2023-04-05T03:14:46.214Z,18.17
2023-04-05T03:17:14.452Z,13.73
2023-04-05T03:19:42.689Z,19.43
2023-04-05T03:22:10.703Z,14.73
2023-04-05T03:24:38.873Z,14.13
2023-04-05T03:27:07.556Z,12.80
2023-04-05T03:29:37.053Z,16.57
2023-04-05T03:32:05.300Z,23.80
2023-04-05T03:34:33.321Z,23.87
2023-04-05T03:37:01.272Z,25.87
2023-04-05T03:39:29.520Z,17.87
2023-04-05T03:41:57.608Z,21.67
2023-04-05T03:44:25.766Z,23.93
2023-04-05T03:46:55.592Z,20.73
2023-04-05T03:49:23.778Z,28.63
2023-04-05T03:51:51.833Z,28.47
2023-04-05T03:54:19.846Z,41.37
2023-04-05T03:56:48.087Z,18.80
2023-04-05T03:59:16.276Z,16.80
2023-04-05T04:01:44.852Z,14.77
2023-04-05T04:04:14.234Z,14.63
2023-04-05T04:06:42.952Z,17.10
2023-04-05T04:09:11.164Z,13.07
2023-04-05T04:11:39.210Z,14.70
2023-04-05T04:14:07.177Z,17.17
2023-04-05T04:16:35.555Z,23.90
2023-04-05T04:19:03.591Z,20.03
2023-04-05T04:21:35.687Z,23.30
2023-04-05T04:24:04.190Z,16.30
2023-04-05T04:26:37.670Z,24.37
2023-04-05T04:29:06.743Z,24.00
2023-04-05T04:31:35.046Z,25.03
2023-04-05T04:34:03.360Z,22.73
2023-04-05T04:36:39.218Z,19.00
2023-04-05T04:39:07.261Z,21.57
2023-04-05T04:41:35.911Z,21.90
2023-04-05T04:44:04.524Z,20.27
2023-04-05T04:46:42.968Z,19.33
2023-04-05T04:49:11.412Z,20.10
2023-04-05T04:51:41.268Z,47.73
2023-04-05T04:54:09.380Z,56.70
2023-04-05T04:56:37.553Z,24.47
2023-04-05T04:59:05.792Z,19.23
2023-04-05T05:01:34.200Z,18.87
2023-04-05T05:04:03.993Z,20.90
2023-04-05T05:06:32.045Z,16.47
2023-04-05T05:09:01.466Z,18.87
2023-04-05T05:11:29.492Z,14.97
2023-04-05T05:13:57.601Z,18.40
2023-04-05T05:16:26.823Z,22.47
2023-04-05T05:18:55.221Z,18.60
2023-04-05T05:21:23.187Z,18.03
2023-04-05T05:23:51.609Z,20.90
2023-04-05T05:26:21.248Z,33.50
2023-04-05T05:28:50.046Z,73.33
2023-04-05T05:31:19.503Z,52.60
2023-04-05T05:33:50.013Z,36.80
2023-04-05T05:36:19.907Z,34.93
2023-04-05T05:38:49.176Z,22.33
2023-04-05T05:41:17.232Z,19.63
2023-04-05T05:43:46.653Z,22.67
2023-04-05T05:46:14.751Z,16.67
2023-04-05T05:48:43.029Z,13.37
2023-04-05T05:51:11.085Z,11.83
2023-04-05T05:53:39.791Z,16.23
2023-04-05T05:56:08.283Z,11.20
2023-04-05T05:58:36.970Z,16.10
2023-04-05T06:01:07.764Z,9.20
2023-04-05T06:03:35.910Z,11.63
2023-04-05T06:06:06.032Z,13.40
2023-04-05T06:08:34.018Z,11.57
2023-04-05T06:11:02.055Z,11.23
2023-04-05T06:13:30.107Z,9.07
2023-04-05T06:15:58.361Z,7.87
2023-04-05T06:18:27.763Z,9.27
2023-04-05T06:20:56.673Z,8.73
2023-04-05T06:23:24.631Z,11.13
2023-04-05T06:25:52.752Z,6.43
2023-04-05T06:28:20.917Z,6.77
2023-04-05T06:30:48.865Z,6.73
2023-04-05T06:33:16.881Z,5.67
2023-04-05T06:35:47.569Z,6.80
2023-04-05T06:38:15.559Z,4.40
2023-04-05T06:40:43.848Z,4.70
2023-04-05T06:43:12.194Z,7.47
2023-04-05T06:45:40.342Z,4.90
2023-04-05T06:48:08.783Z,3.87
2023-04-05T06:50:36.791Z,2.87
2023-04-05T06:53:06.328Z,4.63
2023-04-05T06:55:34.900Z,3.83
2023-04-05T06:58:03.123Z,3.40
2023-04-05T07:00:31.066Z,2.37
2023-04-05T07:02:59.120Z,3.00
2023-04-05T07:05:27.201Z,2.53
2023-04-05T07:07:55.174Z,1.50
2023-04-05T07:10:24.519Z,2.10
2023-04-05T07:12:52.745Z,4.37
2023-04-05T07:15:20.792Z,1.80
2023-04-05T07:17:49.024Z,2.20
2023-04-05T07:20:17.314Z,1.57
2023-04-05T07:22:45.332Z,1.70
2023-04-05T07:25:13.338Z,1.70
2023-04-05T07:27:42.702Z,1.80
2023-04-05T07:30:11.537Z,1.67
2023-04-05T07:32:39.642Z,1.50
2023-04-05T07:35:08.630Z,4.30
2023-04-05T07:37:37.226Z,1.97
2023-04-05T07:40:06.416Z,2.70
2023-04-05T07:42:34.667Z,1.63
2023-04-05T07:45:04.307Z,1.70
2023-04-05T07:47:34.680Z,1.60
2023-04-05T07:50:02.807Z,2.07
2023-04-05T07:52:30.922Z,3.60
2023-04-05T07:54:58.872Z,3.10
2023-04-05T07:57:27.452Z,1.80
2023-04-05T07:59:56.937Z,1.97
2023-04-05T08:02:26.387Z,1.90
2023-04-05T08:04:54.580Z,1.80
2023-04-05T08:07:23.652Z,2.60
2023-04-05T08:09:51.646Z,1.70
2023-04-05T08:12:19.782Z,2.03
2023-04-05T08:14:47.807Z,1.60
2023-04-05T08:17:16.497Z,1.70
2023-04-05T08:19:45.870Z,2.00
2023-04-05T08:22:14.091Z,1.80
2023-04-05T08:24:42.221Z,2.43
2023-04-05T08:27:10.416Z,2.47
2023-04-05T08:29:39.788Z,1.73
2023-04-05T08:32:08.981Z,1.60
2023-04-05T08:34:37.424Z,2.63
2023-04-05T08:37:06.893Z,6.87
2023-04-05T08:39:36.520Z,2.20
2023-04-05T08:42:09.922Z,2.50
2023-04-05T08:44:39.183Z,1.80
2023-04-05T08:47:07.393Z,1.80
2023-04-05T08:49:35.368Z,1.80
2023-04-05T08:52:04.261Z,1.83
2023-04-05T08:54:33.680Z,2.10
2023-04-05T08:57:04.106Z,2.07
2023-04-05T08:59:35.158Z,1.80
2023-04-05T09:02:05.338Z,3.93
2023-04-05T09:04:38.442Z,1.63
2023-04-05T09:07:08.864Z,1.70
2023-04-05T09:09:40.456Z,1.93
2023-04-05T09:12:09.589Z,3.07
2023-04-05T09:14:38.943Z,1.70
2023-04-05T09:17:07.915Z,3.47
2023-04-05T09:19:36.183Z,5.07
2023-04-05T09:22:05.853Z,3.43
2023-04-05T09:24:35.526Z,2.93
2023-04-05T09:27:09.132Z,2.70
2023-04-05T09:29:37.732Z,2.57
2023-04-05T09:32:06.772Z,4.90
2023-04-05T09:34:36.870Z,2.27
2023-04-05T09:37:12.665Z,3.07
2023-04-05T09:39:40.665Z,2.07
2023-04-05T09:42:11.958Z,3.50
2023-04-05T09:44:57.157Z,2.50
2023-04-05T09:47:30.928Z,2.77
2023-04-05T09:49:59.079Z,2.57
2023-04-05T09:52:28.903Z,2.93
2023-04-05T09:54:58.526Z,2.67
2023-04-05T09:57:29.578Z,2.57
2023-04-05T09:59:57.817Z,2.63
2023-04-05T10:02:27.279Z,1.83
2023-04-05T10:04:55.332Z,2.10
2023-04-05T10:07:23.574Z,2.00
2023-04-05T10:09:51.522Z,2.10
2023-04-05T10:12:27.887Z,2.20
2023-04-05T10:14:57.952Z,4.93
2023-04-05T10:17:29.550Z,3.33
2023-04-05T10:20:09.127Z,3.73
2023-04-05T10:22:41.621Z,1.90
2023-04-05T10:25:19.586Z,1.77
2023-04-05T10:27:51.493Z,2.00
2023-04-05T10:30:21.003Z,2.70
2023-04-05T10:33:00.741Z,4.23
2023-04-05T10:35:35.517Z,3.50
2023-04-05T10:38:18.688Z,2.90
2023-04-05T10:40:49.255Z,2.47
2023-04-05T10:43:22.061Z,2.97
2023-04-05T10:45:54.295Z,1.73
2023-04-05T10:48:34.774Z,4.43
2023-04-05T10:51:03.808Z,2.10
2023-04-05T10:53:33.655Z,2.53
2023-04-05T10:56:03.162Z,2.63
2023-04-05T10:58:32.337Z,2.10
2023-04-05T11:01:04.338Z,2.67
2023-04-05T11:03:52.518Z,4.17
2023-04-05T11:06:25.610Z,3.17
2023-04-05T11:08:56.297Z,2.90
2023-04-05T11:11:26.562Z,2.97
2023-04-05T11:13:55.879Z,3.40
2023-04-05T11:16:39.756Z,2.43
2023-04-05T11:19:07.788Z,3.43
2023-04-05T11:21:35.761Z,3.07
2023-04-05T11:24:07.620Z,3.17
2023-04-05T11:26:54.919Z,2.83
2023-04-05T11:29:50.989Z,2.00
2023-04-05T11:32:20.510Z,2.73
2023-04-05T11:35:00.459Z,2.50
2023-04-05T11:38:06.132Z,2.80
2023-04-05T11:40:35.362Z,1.90
2023-04-05T11:43:05.997Z,2.13
2023-04-05T11:45:35.405Z,2.23
2023-04-05T11:48:08.169Z,2.37
2023-04-05T11:50:38.285Z,4.93
2023-04-05T11:53:11.132Z,6.23
2023-04-05T11:55:39.710Z,4.77
2023-04-05T11:58:15.148Z,1.93
2023-04-05T12:00:43.277Z,16.20
2023-04-05T12:03:16.494Z,4.60
2023-04-05T12:05:49.658Z,3.67
2023-04-05T12:08:18.162Z,2.10
2023-04-05T12:10:46.847Z,3.30
2023-04-05T12:13:14.988Z,2.97
2023-04-05T12:15:43.132Z,2.33
2023-04-05T12:18:16.533Z,7.17
2023-04-05T12:20:45.653Z,12.90
2023-04-05T12:23:13.888Z,2.37
2023-04-05T12:25:42.939Z,2.63
2023-04-05T12:28:12.296Z,3.73
2023-04-05T12:30:50.595Z,3.63
2023-04-05T12:33:29.287Z,2.03
2023-04-05T12:35:57.624Z,2.23
2023-04-05T12:38:28.456Z,2.50
2023-04-05T12:41:00.397Z,2.40
2023-04-05T12:43:38.713Z,2.27
2023-04-05T12:46:10.556Z,2.73
2023-04-05T12:48:40.092Z,3.07
2023-04-05T12:51:17.177Z,2.93
2023-04-05T12:53:48.650Z,4.70
2023-04-05T12:56:17.588Z,3.20
2023-04-05T12:58:49.733Z,2.67
2023-04-05T13:01:17.918Z,4.17
2023-04-05T13:03:49.651Z,3.07
2023-04-05T13:06:18.182Z,3.23
2023-04-05T13:08:46.586Z,9.67
2023-04-05T13:11:14.544Z,4.70
2023-04-05T13:13:42.643Z,3.37
2023-04-05T13:16:10.747Z,2.13
2023-04-05T13:18:39.226Z,2.80
2023-04-05T13:21:10.135Z,2.20
2023-04-05T13:23:39.356Z,2.43
2023-04-05T13:26:08.486Z,6.33
2023-04-05T13:28:36.677Z,2.47
2023-04-05T13:31:06.567Z,4.47
2023-04-05T13:33:34.894Z,9.07
2023-04-05T13:36:02.951Z,6.33
2023-04-05T13:38:32.293Z,13.13
2023-04-05T13:41:00.563Z,4.40
2023-04-05T13:43:28.650Z,8.60
2023-04-05T13:45:56.653Z,3.50
2023-04-05T13:48:24.650Z,3.97
2023-04-05T13:50:52.707Z,3.13
2023-04-05T13:53:20.701Z,2.70
2023-04-05T13:55:50.165Z,3.07
2023-04-05T13:58:18.689Z,2.67
2023-04-05T14:00:47.344Z,3.47
2023-04-05T14:03:15.685Z,3.23
2023-04-05T14:05:43.780Z,3.63
2023-04-05T14:08:11.774Z,7.03
2023-04-05T14:10:39.832Z,3.80
2023-04-05T14:13:09.392Z,5.50
2023-04-05T14:15:37.414Z,4.10
2023-04-05T14:18:05.965Z,6.10
2023-04-05T14:20:34.121Z,2.60
2023-04-05T14:23:02.436Z,7.10
2023-04-05T14:25:30.624Z,3.80
2023-04-05T14:27:58.633Z,5.03
2023-04-05T14:30:28.044Z,3.30
2023-04-05T14:32:56.135Z,4.63
2023-04-05T14:35:24.219Z,6.33
2023-04-05T14:37:52.595Z,4.17
2023-04-05T14:40:20.642Z,5.17
2023-04-05T14:42:50.062Z,4.13
2023-04-05T14:45:18.773Z,4.23
2023-04-05T14:47:48.216Z,7.73
2023-04-05T14:50:16.433Z,4.63
2023-04-05T14:52:45.478Z,4.23
2023-04-05T14:55:14.096Z,4.73
2023-04-05T14:57:42.342Z,5.50
2023-04-05T15:00:12.267Z,5.90
2023-04-05T15:02:40.442Z,3.93
2023-04-05T15:05:11.460Z,17.10
2023-04-05T15:07:39.461Z,5.23
2023-04-05T15:10:08.198Z,5.60
2023-04-05T15:12:36.199Z,7.53
2023-04-05T15:15:04.176Z,9.13
2023-04-05T15:17:32.280Z,9.73
2023-04-05T15:20:00.356Z,5.40
2023-04-05T15:22:30.008Z,3.93
2023-04-05T15:24:59.930Z,5.37
2023-04-05T15:27:27.901Z,4.70
2023-04-05T15:29:55.883Z,6.00
2023-04-05T15:32:24.064Z,3.87
2023-04-05T15:34:52.019Z,4.00
2023-04-05T15:37:20.182Z,5.07
2023-04-05T15:39:49.499Z,5.03
2023-04-05T15:42:18.656Z,4.17
2023-04-05T15:44:46.624Z,7.20
2023-04-05T15:47:14.679Z,11.03
2023-04-05T15:49:43.449Z,7.50
2023-04-05T15:52:11.931Z,3.77
2023-04-05T15:54:40.121Z,4.40
2023-04-05T15:57:09.592Z,5.30
2023-04-05T15:59:37.763Z,7.20
2023-04-05T16:02:06.270Z,3.07
2023-04-05T16:04:34.363Z,4.60
2023-04-05T16:07:02.369Z,3.60
2023-04-05T16:09:30.540Z,3.67
2023-04-05T16:11:59.396Z,4.90
2023-04-05T16:14:29.094Z,5.17
2023-04-05T16:16:57.211Z,3.70
2023-04-05T16:19:25.428Z,4.70
2023-04-05T16:21:53.744Z,7.90
2023-04-05T16:24:21.674Z,17.20
2023-04-05T16:26:49.832Z,7.97
2023-04-05T16:29:17.805Z,7.43
2023-04-05T16:31:47.972Z,11.67
2023-04-05T16:34:16.152Z,7.17
2023-04-05T16:36:44.338Z,8.80
2023-04-05T16:39:12.289Z,9.87
2023-04-05T16:41:40.437Z,14.30
2023-04-05T16:44:08.396Z,17.30
2023-04-05T16:46:36.542Z,12.30
2023-04-05T16:49:06.157Z,13.13
2023-04-05T16:51:35.678Z,16.90
2023-04-05T16:54:03.903Z,11.60
2023-04-05T16:56:31.920Z,14.80
2023-04-05T16:58:59.957Z,18.60
2023-04-05T17:01:28.826Z,19.67
2023-04-05T17:03:59.777Z,26.20
2023-04-05T17:06:29.572Z,23.03
2023-04-05T17:08:57.715Z,26.30
2023-04-05T17:11:28.497Z,18.10
2023-04-05T17:13:57.618Z,23.60
2023-04-05T17:16:26.021Z,21.73
2023-04-05T17:18:54.269Z,15.70
2023-04-05T17:21:22.950Z,14.57
2023-04-05T17:23:52.379Z,19.40
2023-04-05T17:26:20.547Z,19.73
2023-04-05T17:28:48.536Z,20.60
2023-04-05T17:31:16.974Z,17.53
2023-04-05T17:33:47.742Z,15.67
2023-04-05T17:36:17.920Z,12.00
2023-04-05T17:38:46.073Z,18.33
2023-04-05T17:41:15.479Z,10.73
2023-04-05T17:43:43.607Z,8.33
2023-04-05T17:46:13.902Z,12.73
2023-04-05T17:48:42.180Z,12.03
2023-04-05T17:51:10.426Z,13.03
2023-04-05T17:53:38.627Z,17.40
2023-04-05T17:56:06.866Z,16.80
2023-04-05T17:58:36.397Z,20.37
2023-04-05T18:01:04.611Z,20.47
2023-04-05T18:03:32.770Z,20.57
2023-04-05T18:06:00.874Z,20.23
2023-04-05T18:08:29.299Z,27.20
2023-04-05T18:10:58.358Z,31.80
2023-04-05T18:13:27.404Z,29.73
2023-04-05T18:15:57.434Z,16.67
2023-04-05T18:18:26.521Z,19.43
2023-04-05T18:20:55.487Z,20.80
2023-04-05T18:23:25.100Z,17.43
2023-04-05T18:25:54.436Z,15.57
2023-04-05T18:28:23.771Z,13.97
2023-04-05T18:30:51.913Z,16.80
2023-04-05T18:33:22.517Z,14.13
2023-04-05T18:35:51.535Z,15.67
2023-04-05T18:38:19.875Z,16.00
2023-04-05T18:40:47.887Z,19.80
2023-04-05T18:43:15.945Z,19.30
2023-04-05T18:45:44.090Z,21.10
2023-04-05T18:48:12.532Z,25.03
2023-04-05T18:50:41.984Z,23.40
2023-04-05T18:53:10.196Z,29.43
2023-04-05T18:55:38.348Z,171.40
2023-04-05T18:58:06.406Z,303.80
2023-04-05T19:00:35.012Z,162.33
2023-04-05T19:03:03.190Z,162.93
2023-04-05T19:05:31.500Z,135.90
2023-04-05T19:08:00.942Z,87.23
2023-04-05T19:10:29.099Z,89.20
2023-04-05T19:12:57.197Z,70.67
2023-04-05T19:15:25.345Z,98.33
2023-04-05T19:17:53.448Z,134.83
2023-04-05T19:20:21.428Z,138.80
2023-04-05T19:22:49.395Z,127.93
2023-04-05T19:25:18.789Z,97.77
2023-04-05T19:27:46.922Z,91.83
2023-04-05T19:30:15.063Z,74.47
2023-04-05T19:32:43.048Z,52.10
2023-04-05T19:35:11.611Z,36.23
2023-04-05T19:37:39.785Z,49.80
2023-04-05T19:40:09.242Z,38.70
2023-04-05T19:42:38.905Z,37.30
2023-04-05T19:45:09.307Z,40.43
2023-04-05T19:47:43.091Z,63.70
2023-04-05T19:50:56.467Z,46.87
2023-04-05T19:53:43.851Z,39.20
2023-04-05T19:56:15.228Z,43.47
2023-04-05T19:58:45.011Z,39.13
2023-04-05T20:01:18.894Z,42.27
2023-04-05T20:03:47.383Z,45.33
2023-04-05T20:06:17.044Z,40.73
2023-04-05T20:08:46.735Z,52.10
2023-04-05T20:11:16.541Z,45.60
2023-04-05T20:13:49.100Z,41.23
2023-04-05T20:16:18.372Z,43.60
2023-04-05T20:18:47.936Z,41.50
2023-04-05T20:21:16.656Z,28.20
2023-04-05T20:23:45.447Z,35.80
2023-04-05T20:26:14.774Z,35.70
2023-04-05T20:28:44.647Z,31.63
2023-04-05T20:31:19.958Z,34.30
2023-04-05T20:33:49.798Z,30.53
2023-04-05T20:36:20.015Z,24.63
2023-04-05T20:38:49.365Z,27.47
2023-04-05T20:41:19.808Z,22.03
2023-04-05T20:43:48.361Z,22.93
2023-04-05T20:46:17.890Z,23.77
2023-04-05T20:48:46.830Z,33.47
2023-04-05T20:51:15.796Z,26.63
2023-04-05T20:53:44.363Z,30.57
2023-04-05T20:56:13.526Z,25.37
2023-04-05T20:58:42.123Z,27.03
2023-04-05T21:01:11.210Z,21.67
2023-04-05T21:03:42.556Z,24.83
2023-04-05T21:06:11.447Z,26.83
2023-04-05T21:08:40.453Z,31.07
2023-04-05T21:11:10.824Z,37.40
2023-04-05T21:13:39.172Z,53.27
2023-04-05T21:16:07.828Z,56.13
2023-04-05T21:18:36.254Z,103.13
2023-04-05T21:21:06.258Z,72.07
2023-04-05T21:23:34.829Z,57.80
2023-04-05T21:26:04.244Z,42.87
2023-04-05T21:28:32.635Z,45.10
2023-04-05T21:31:01.043Z,36.47
2023-04-05T21:33:29.138Z,33.93
2023-04-05T21:35:57.333Z,34.47
2023-04-05T21:38:27.208Z,39.37
2023-04-05T21:40:55.767Z,34.30
2023-04-05T21:43:24.032Z,33.77
2023-04-05T21:45:53.174Z,36.07
2023-04-05T21:48:21.256Z,35.50
2023-04-05T21:50:49.252Z,31.10
2023-04-05T21:53:17.201Z,38.30
2023-04-05T21:55:46.551Z,42.73
2023-04-05T21:58:14.490Z,36.43
2023-04-05T22:00:42.523Z,27.80
2023-04-05T22:03:10.809Z,34.80
2023-04-05T22:05:39.198Z,35.40
2023-04-05T22:08:07.902Z,45.27
2023-04-05T22:10:37.829Z,44.33
2023-04-05T22:13:07.400Z,45.83
2023-04-05T22:15:35.456Z,47.20
2023-04-05T22:18:04.031Z,47.20
2023-04-05T22:20:32.277Z,65.97
2023-04-05T22:23:00.224Z,49.07
2023-04-05T22:25:28.280Z,71.43
2023-04-05T22:28:00.101Z,63.07
2023-04-05T22:30:40.946Z,61.30
2023-04-05T22:33:12.639Z,52.17
2023-04-05T22:35:41.094Z,49.07
2023-04-05T22:38:09.518Z,44.07
2023-04-05T22:40:37.484Z,36.70
2023-04-05T22:43:05.398Z,41.37
2023-04-05T22:45:34.869Z,40.67
2023-04-05T22:48:03.050Z,44.57
2023-04-05T22:50:31.367Z,51.80
2023-04-05T22:52:59.415Z,49.27
2023-04-05T22:55:27.451Z,58.67
2023-04-05T22:57:55.488Z,58.67
2023-04-05T23:00:23.457Z,55.57
2023-04-05T23:02:52.886Z,50.00
2023-04-05T23:05:21.092Z,56.67
2023-04-05T23:07:49.159Z,43.70
2023-04-05T23:10:17.422Z,47.73
2023-04-05T23:12:46.403Z,47.23
2023-04-05T23:15:15.155Z,47.27
2023-04-05T23:17:43.214Z,41.83
2023-04-05T23:20:13.046Z,38.17
2023-04-05T23:22:41.097Z,46.23
2023-04-05T23:25:10.285Z,45.67
2023-04-05T23:27:38.414Z,43.47
2023-04-05T23:30:07.920Z,44.80
2023-04-05T23:32:35.950Z,47.37
2023-04-05T23:35:04.008Z,45.10
2023-04-05T23:37:33.342Z,39.30
2023-04-05T23:40:01.449Z,41.27
2023-04-05T23:42:29.383Z,43.53
2023-04-05T23:44:57.384Z,46.30
2023-04-05T23:47:25.402Z,42.00
2023-04-05T23:49:53.402Z,41.70
2023-04-05T23:52:21.347Z,31.93
2023-04-05T23:54:50.695Z,34.07
2023-04-05T23:57:18.647Z,40.67
2023-04-05T23:59:46.625Z,35.23
